createdAt,value
2022-09-11T00:00:14.063Z,954.11
2022-09-11T00:01:14.060Z,954.16
2022-09-11T00:02:14.070Z,954.22
2022-09-11T00:03:14.000Z,954.26
2022-09-11T00:04:13.987Z,954.27
2022-09-11T00:05:13.968Z,954.23
2022-09-11T00:06:13.955Z,954.22
2022-09-11T00:07:13.958Z,954.21
2022-09-11T00:08:13.939Z,954.19
2022-09-11T00:09:13.971Z,954.21
2022-09-11T00:10:13.908Z,954.18
2022-09-11T00:11:13.925Z,954.19
2022-09-11T00:12:13.877Z,954.17
2022-09-11T00:13:13.864Z,954.20
2022-09-11T00:14:14.123Z,954.19
2022-09-11T00:15:13.841Z,954.20
2022-09-11T00:16:13.942Z,954.21
2022-09-11T00:17:13.829Z,954.26
2022-09-11T00:18:13.799Z,954.26
2022-09-11T00:19:13.802Z,954.25
2022-09-11T00:20:13.832Z,954.24
2022-09-11T00:21:13.747Z,954.23
2022-09-11T00:22:13.756Z,954.25
2022-09-11T00:23:13.724Z,954.26
2022-09-11T00:24:13.718Z,954.24
2022-09-11T00:25:13.721Z,954.25
2022-09-11T00:26:13.743Z,954.21
2022-09-11T00:27:13.674Z,954.20
2022-09-11T00:28:13.675Z,954.17
2022-09-11T00:29:13.646Z,954.19
2022-09-11T00:30:13.662Z,954.18
2022-09-11T00:31:13.710Z,954.18
2022-09-11T00:32:13.603Z,954.23
2022-09-11T00:33:13.589Z,954.21
2022-09-11T00:34:13.591Z,954.22
2022-09-11T00:35:13.581Z,954.22
2022-09-11T00:36:13.590Z,954.18
2022-09-11T00:37:13.554Z,954.22
2022-09-11T00:38:17.233Z,954.20
2022-09-11T00:39:13.503Z,954.29
2022-09-11T00:40:13.544Z,954.25
2022-09-11T00:41:13.491Z,954.21
2022-09-11T00:42:13.479Z,954.24
2022-09-11T00:43:13.505Z,954.24
2022-09-11T00:44:13.449Z,954.26
2022-09-11T00:45:13.421Z,954.24
2022-09-11T00:46:13.434Z,954.28
2022-09-11T00:47:13.429Z,954.33
2022-09-11T00:48:13.439Z,954.35
2022-09-11T00:49:13.370Z,954.32
2022-09-11T00:50:13.375Z,954.32
2022-09-11T00:51:13.343Z,954.36
2022-09-11T00:52:13.361Z,954.36
2022-09-11T00:53:13.331Z,954.39
2022-09-11T00:54:13.309Z,954.44
2022-09-11T00:55:13.310Z,954.45
2022-09-11T00:56:13.284Z,954.44
2022-09-11T00:57:13.287Z,954.48
2022-09-11T00:58:13.258Z,954.48
2022-09-11T00:59:13.230Z,954.47
2022-09-11T01:00:13.234Z,954.44
2022-09-11T01:01:13.247Z,954.37
2022-09-11T01:02:13.257Z,954.37
2022-09-11T01:03:13.212Z,954.38
2022-09-11T01:04:13.173Z,954.43
2022-09-11T01:05:13.156Z,954.39
2022-09-11T01:06:13.146Z,954.44
2022-09-11T01:07:13.152Z,954.39
2022-09-11T01:08:13.117Z,954.36
2022-09-11T01:09:13.125Z,954.34
2022-09-11T01:10:13.120Z,954.30
2022-09-11T01:11:13.068Z,954.33
2022-09-11T01:12:13.054Z,954.25
2022-09-11T01:13:13.050Z,954.31
2022-09-11T01:14:13.062Z,954.30
2022-09-11T01:15:13.047Z,954.29
2022-09-11T01:16:13.094Z,954.27
2022-09-11T01:17:12.996Z,954.25
2022-09-11T01:18:12.992Z,954.23
2022-09-11T01:19:12.999Z,954.22
2022-09-11T01:20:12.960Z,954.13
2022-09-11T01:21:12.940Z,954.14
2022-09-11T01:22:12.930Z,954.11
2022-09-11T01:23:12.909Z,954.12
2022-09-11T01:24:12.933Z,954.07
2022-09-11T01:25:12.881Z,954.13
2022-09-11T01:26:12.866Z,954.12
2022-09-11T01:27:12.863Z,954.16
2022-09-11T01:28:12.877Z,954.14
2022-09-11T01:29:12.834Z,954.13
2022-09-11T01:30:12.812Z,954.12
2022-09-11T01:31:12.929Z,954.10
2022-09-11T01:32:12.793Z,954.07
2022-09-11T01:33:12.775Z,954.08
2022-09-11T01:34:12.763Z,954.06
2022-09-11T01:35:12.777Z,954.03
2022-09-11T01:36:12.770Z,954.04
2022-09-11T01:37:12.765Z,954.03
2022-09-11T01:38:12.709Z,954.01
2022-09-11T01:39:12.692Z,954.03
2022-09-11T01:40:12.735Z,953.98
2022-09-11T01:41:12.688Z,954.01
2022-09-11T01:42:12.665Z,954.02
2022-09-11T01:43:12.738Z,954.00
2022-09-11T01:44:12.626Z,954.04
2022-09-11T01:45:12.638Z,954.01
2022-09-11T01:46:12.637Z,954.04
2022-09-11T01:47:12.591Z,954.01
2022-09-11T01:48:12.574Z,954.00
2022-09-11T01:49:12.563Z,953.99
2022-09-11T01:50:12.550Z,954.03
2022-09-11T01:51:12.557Z,954.03
2022-09-11T01:52:12.519Z,954.00
2022-09-11T01:53:12.504Z,954.03
2022-09-11T01:54:12.496Z,953.99
2022-09-11T01:55:12.503Z,953.95
2022-09-11T01:56:12.466Z,953.94
2022-09-11T01:57:12.453Z,953.91
2022-09-11T01:58:12.439Z,953.90
2022-09-11T01:59:12.444Z,953.93
2022-09-11T02:00:12.413Z,953.99
2022-09-11T02:01:12.448Z,953.99
2022-09-11T02:02:12.426Z,953.98
2022-09-11T02:03:12.355Z,954.00
2022-09-11T02:04:12.363Z,954.00
2022-09-11T02:05:12.360Z,953.98
2022-09-11T02:06:12.333Z,953.97
2022-09-11T02:07:12.312Z,953.95
2022-09-11T02:08:12.301Z,953.95
2022-09-11T02:09:12.306Z,953.97
2022-09-11T02:10:12.275Z,953.97
2022-09-11T02:11:12.256Z,953.98
2022-09-11T02:12:12.245Z,954.02
2022-09-11T02:13:12.235Z,954.03
2022-09-11T02:14:12.243Z,953.99
2022-09-11T02:15:12.193Z,953.94
2022-09-11T02:16:12.489Z,953.94
2022-09-11T02:17:12.200Z,953.96
2022-09-11T02:18:12.168Z,953.98
2022-09-11T02:19:12.146Z,953.94
2022-09-11T02:20:12.141Z,953.95
2022-09-11T02:21:12.157Z,953.93
2022-09-11T02:22:12.130Z,953.96
2022-09-11T02:23:12.090Z,954.00
2022-09-11T02:24:12.106Z,953.99
2022-09-11T02:25:12.070Z,954.00
2022-09-11T02:26:12.055Z,953.99
2022-09-11T02:27:12.036Z,954.01
2022-09-11T02:28:12.058Z,954.00
2022-09-11T02:29:12.002Z,953.98
2022-09-11T02:30:12.003Z,953.95
2022-09-11T02:31:12.053Z,953.91
2022-09-11T02:32:11.976Z,953.93
2022-09-11T02:33:11.953Z,953.91
2022-09-11T02:34:11.963Z,953.93
2022-09-11T02:35:11.951Z,953.93
2022-09-11T02:36:11.925Z,953.96
2022-09-11T02:37:11.922Z,953.98
2022-09-11T02:38:11.912Z,953.98
2022-09-11T02:39:11.865Z,953.94
2022-09-11T02:40:11.912Z,953.97
2022-09-11T02:41:11.855Z,953.99
2022-09-11T02:42:11.845Z,953.96
2022-09-11T02:43:11.850Z,953.92
2022-09-11T02:44:11.818Z,953.96
2022-09-11T02:45:11.814Z,953.93
2022-09-11T02:46:11.781Z,953.97
2022-09-11T02:47:11.778Z,953.99
2022-09-11T02:48:11.755Z,953.97
2022-09-11T02:49:11.740Z,954.03
2022-09-11T02:50:11.778Z,954.01
2022-09-11T02:51:11.741Z,953.97
2022-09-11T02:52:11.757Z,953.96
2022-09-11T02:53:11.692Z,953.90
2022-09-11T02:54:11.676Z,953.83
2022-09-11T02:55:11.665Z,953.82
2022-09-11T02:56:11.674Z,953.87
2022-09-11T02:57:11.658Z,953.86
2022-09-11T02:58:11.621Z,953.93
2022-09-11T02:59:11.594Z,953.89
2022-09-11T03:00:11.635Z,953.89
2022-09-11T03:01:11.680Z,953.89
2022-09-11T03:02:11.602Z,953.89
2022-09-11T03:03:11.551Z,953.90
2022-09-11T03:04:11.588Z,953.87
2022-09-11T03:05:11.525Z,953.84
2022-09-11T03:06:11.532Z,953.84
2022-09-11T03:07:11.494Z,953.86
2022-09-11T03:08:11.488Z,953.87
2022-09-11T03:09:11.467Z,953.87
2022-09-11T03:10:11.457Z,953.78
2022-09-11T03:11:11.459Z,953.81
2022-09-11T03:12:11.427Z,953.81
2022-09-11T03:13:11.415Z,953.85
2022-09-11T03:14:11.398Z,953.85
2022-09-11T03:15:11.413Z,953.86
2022-09-11T03:16:11.402Z,953.85
2022-09-11T03:17:11.358Z,953.90
2022-09-11T03:18:11.371Z,953.90
2022-09-11T03:19:11.325Z,953.89
2022-09-11T03:20:11.321Z,953.86
2022-09-11T03:21:11.344Z,953.81
2022-09-11T03:22:11.300Z,953.86
2022-09-11T03:23:11.281Z,953.91
2022-09-11T03:24:11.263Z,953.91
2022-09-11T03:25:11.246Z,953.87
2022-09-11T03:26:11.255Z,953.89
2022-09-11T03:27:11.216Z,953.86
2022-09-11T03:28:11.214Z,953.88
2022-09-11T03:29:11.193Z,953.87
2022-09-11T03:30:11.203Z,953.88
2022-09-11T03:31:11.250Z,953.83
2022-09-11T03:32:11.151Z,953.87
2022-09-11T03:33:11.139Z,953.88
2022-09-11T03:34:11.125Z,953.93
2022-09-11T03:35:11.106Z,953.91
2022-09-11T03:36:11.132Z,953.90
2022-09-11T03:37:11.104Z,953.94
2022-09-11T03:38:11.070Z,953.96
2022-09-11T03:39:11.058Z,953.92
2022-09-11T03:40:11.086Z,953.96
2022-09-11T03:41:11.029Z,953.96
2022-09-11T03:42:11.051Z,953.98
2022-09-11T03:43:11.027Z,953.95
2022-09-11T03:44:10.991Z,953.97
2022-09-11T03:45:11.013Z,953.93
2022-09-11T03:46:10.969Z,954.00
2022-09-11T03:47:10.984Z,954.02
2022-09-11T03:48:10.933Z,953.99
2022-09-11T03:49:10.939Z,953.99
2022-09-11T03:50:10.906Z,954.00
2022-09-11T03:51:10.917Z,953.98
2022-09-11T03:52:10.876Z,953.98
2022-09-11T03:53:10.862Z,953.99
2022-09-11T03:54:10.883Z,953.96
2022-09-11T03:55:10.886Z,953.97
2022-09-11T03:56:10.833Z,954.00
2022-09-11T03:57:10.803Z,953.98
2022-09-11T03:58:10.789Z,953.99
2022-09-11T03:59:10.784Z,953.99
2022-09-11T04:00:10.787Z,953.97
2022-09-11T04:01:10.959Z,953.98
2022-09-11T04:02:10.786Z,953.98
2022-09-11T04:03:10.736Z,953.94
2022-09-11T04:04:10.724Z,953.93
2022-09-11T04:05:10.705Z,953.92
2022-09-11T04:06:10.714Z,953.94
2022-09-11T04:07:10.671Z,953.93
2022-09-11T04:08:10.661Z,953.91
2022-09-11T04:09:10.645Z,953.90
2022-09-11T04:10:10.641Z,953.94
2022-09-11T04:11:10.648Z,953.95
2022-09-11T04:12:10.599Z,953.95
2022-09-11T04:13:10.595Z,953.92
2022-09-11T04:14:10.576Z,953.89
2022-09-11T04:15:10.562Z,953.91
2022-09-11T04:16:10.598Z,953.88
2022-09-11T04:17:10.566Z,953.88
2022-09-11T04:18:10.520Z,953.89
2022-09-11T04:19:10.505Z,953.91
2022-09-11T04:20:10.493Z,953.91
2022-09-11T04:21:10.557Z,953.93
2022-09-11T04:22:10.464Z,953.90
2022-09-11T04:23:10.457Z,953.88
2022-09-11T04:24:10.473Z,953.86
2022-09-11T04:25:10.425Z,953.85
2022-09-11T04:26:10.413Z,953.89
2022-09-11T04:27:10.396Z,953.93
2022-09-11T04:28:10.422Z,953.96
2022-09-11T04:29:10.367Z,953.97
2022-09-11T04:30:10.352Z,953.98
2022-09-11T04:31:10.345Z,953.95
2022-09-11T04:32:10.332Z,953.94
2022-09-11T04:33:10.345Z,953.92
2022-09-11T04:34:10.302Z,953.94
2022-09-11T04:35:10.315Z,953.89
2022-09-11T04:36:10.269Z,953.86
2022-09-11T04:37:10.269Z,953.87
2022-09-11T04:38:10.248Z,953.86
2022-09-11T04:39:10.233Z,953.85
2022-09-11T04:40:10.307Z,953.90
2022-09-11T04:41:10.228Z,953.87
2022-09-11T04:42:10.213Z,953.91
2022-09-11T04:43:10.225Z,953.92
2022-09-11T04:44:10.162Z,953.93
2022-09-11T04:45:10.172Z,953.92
2022-09-11T04:46:10.173Z,953.94
2022-09-11T04:47:10.166Z,953.89
2022-09-11T04:48:10.114Z,953.88
2022-09-11T04:49:10.124Z,953.81
2022-09-11T04:50:10.088Z,953.83
2022-09-11T04:51:10.072Z,953.85
2022-09-11T04:52:10.067Z,953.86
2022-09-11T04:53:10.037Z,953.83
2022-09-11T04:54:10.051Z,953.81
2022-09-11T04:55:10.017Z,953.85
2022-09-11T04:56:09.998Z,953.84
2022-09-11T04:57:10.017Z,953.87
2022-09-11T04:58:09.977Z,953.84
2022-09-11T04:59:09.984Z,953.83
2022-09-11T05:00:09.945Z,953.86
2022-09-11T05:01:09.958Z,953.88
2022-09-11T05:02:09.956Z,953.86
2022-09-11T05:03:09.936Z,953.86
2022-09-11T05:04:09.908Z,953.79
2022-09-11T05:05:09.904Z,953.77
2022-09-11T05:06:09.857Z,953.72
2022-09-11T05:07:09.858Z,953.75
2022-09-11T05:08:09.828Z,953.73
2022-09-11T05:09:09.831Z,953.72
2022-09-11T05:10:09.838Z,953.71
2022-09-11T05:11:09.797Z,953.72
2022-09-11T05:12:09.791Z,953.79
2022-09-11T05:13:09.796Z,953.86
2022-09-11T05:14:09.759Z,953.89
2022-09-11T05:15:09.786Z,953.93
2022-09-11T05:16:09.860Z,953.86
2022-09-11T05:17:09.720Z,953.87
2022-09-11T05:18:09.701Z,953.91
2022-09-11T05:19:09.708Z,953.92
2022-09-11T05:20:11.901Z,953.90
2022-09-11T05:21:09.667Z,953.91
2022-09-11T05:22:09.635Z,953.85
2022-09-11T05:23:09.634Z,953.86
2022-09-11T05:24:09.622Z,953.86
2022-09-11T05:25:09.629Z,953.90
2022-09-11T05:26:09.618Z,953.91
2022-09-11T05:27:09.571Z,953.95
2022-09-11T05:28:09.591Z,953.96
2022-09-11T05:29:09.557Z,953.98
2022-09-11T05:30:09.598Z,953.96
2022-09-11T05:31:09.525Z,953.97
2022-09-11T05:32:09.516Z,953.97
2022-09-11T05:33:09.530Z,953.97
2022-09-11T05:34:09.500Z,953.96
2022-09-11T05:35:09.475Z,953.99
2022-09-11T05:36:09.449Z,953.98
2022-09-11T05:37:09.438Z,954.00
2022-09-11T05:38:09.444Z,953.98
2022-09-11T05:39:09.429Z,953.99
2022-09-11T05:40:09.466Z,953.97
2022-09-11T05:41:09.397Z,953.99
2022-09-11T05:42:09.408Z,953.98
2022-09-11T05:43:09.374Z,954.01
2022-09-11T05:44:09.342Z,954.00
2022-09-11T05:45:09.349Z,954.05
2022-09-11T05:46:09.394Z,954.03
2022-09-11T05:47:09.301Z,954.03
2022-09-11T05:48:09.303Z,954.05
2022-09-11T05:49:09.338Z,954.04
2022-09-11T05:50:09.326Z,954.04
2022-09-11T05:51:09.247Z,954.04
2022-09-11T05:52:09.247Z,954.09
2022-09-11T05:53:09.232Z,954.06
2022-09-11T05:54:09.211Z,954.04
2022-09-11T05:55:09.229Z,954.06
2022-09-11T05:56:09.180Z,954.00
2022-09-11T05:57:09.165Z,954.05
2022-09-11T05:58:09.146Z,954.05
2022-09-11T05:59:09.145Z,954.05
2022-09-11T06:00:09.145Z,953.99
2022-09-11T06:01:09.232Z,954.07
2022-09-11T06:02:09.139Z,954.07
2022-09-11T06:03:11.499Z,954.10
2022-09-11T06:04:09.106Z,954.14
2022-09-11T06:05:09.057Z,954.14
2022-09-11T06:06:09.072Z,954.16
2022-09-11T06:07:09.031Z,954.14
2022-09-11T06:08:09.017Z,954.12
2022-09-11T06:09:09.022Z,954.07
2022-09-11T06:10:08.983Z,954.08
2022-09-11T06:11:09.008Z,954.12
2022-09-11T06:12:08.958Z,954.16
2022-09-11T06:13:08.964Z,954.18
2022-09-11T06:14:08.935Z,954.17
2022-09-11T06:15:20.295Z,954.10
2022-09-11T06:16:08.932Z,954.06
2022-09-11T06:17:08.892Z,954.04
2022-09-11T06:18:08.955Z,954.11
2022-09-11T06:19:08.881Z,954.16
2022-09-11T06:20:08.874Z,954.16
2022-09-11T06:21:08.844Z,954.16
2022-09-11T06:22:08.859Z,954.17
2022-09-11T06:23:09.468Z,954.15
2022-09-11T06:24:08.827Z,954.14
2022-09-11T06:25:08.785Z,954.15
2022-09-11T06:26:08.777Z,954.16
2022-09-11T06:27:08.803Z,954.20
2022-09-11T06:28:08.776Z,954.19
2022-09-11T06:29:08.736Z,954.17
2022-09-11T06:30:08.714Z,954.18
2022-09-11T06:31:08.708Z,954.18
2022-09-11T06:32:08.724Z,954.21
2022-09-11T06:33:08.677Z,954.20
2022-09-11T06:34:08.666Z,954.17
2022-09-11T06:35:08.655Z,954.14
2022-09-11T06:36:08.638Z,954.13
2022-09-11T06:37:08.688Z,954.18
2022-09-11T06:38:08.613Z,954.19
2022-09-11T06:39:08.625Z,954.18
2022-09-11T06:40:08.615Z,954.23
2022-09-11T06:41:08.570Z,954.21
2022-09-11T06:42:08.560Z,954.23
2022-09-11T06:43:08.543Z,954.24
2022-09-11T06:44:08.560Z,954.21
2022-09-11T06:45:08.551Z,954.22
2022-09-11T06:46:08.566Z,954.23
2022-09-11T06:47:08.522Z,954.21
2022-09-11T06:48:08.472Z,954.21
2022-09-11T06:49:08.472Z,954.20
2022-09-11T06:50:08.446Z,954.24
2022-09-11T06:51:08.448Z,954.27
2022-09-11T06:52:08.559Z,954.25
2022-09-11T06:53:08.407Z,954.22
2022-09-11T06:54:08.400Z,954.19
2022-09-11T06:55:08.376Z,954.19
2022-09-11T06:56:08.355Z,954.16
2022-09-11T06:57:08.425Z,954.13
2022-09-11T06:58:08.340Z,954.09
2022-09-11T06:59:08.337Z,954.13
2022-09-11T07:00:08.323Z,954.13
2022-09-11T07:01:08.458Z,954.16
2022-09-11T07:02:08.393Z,954.19
2022-09-11T07:03:08.298Z,954.20
2022-09-11T07:04:08.264Z,954.19
2022-09-11T07:05:08.248Z,954.15
2022-09-11T07:06:08.240Z,954.18
2022-09-11T07:07:08.224Z,954.20
2022-09-11T07:08:08.231Z,954.19
2022-09-11T07:09:08.191Z,954.25
2022-09-11T07:10:08.191Z,954.22
2022-09-11T07:11:08.170Z,954.19
2022-09-11T07:12:08.147Z,954.21
2022-09-11T07:13:08.137Z,954.28
2022-09-11T07:14:08.159Z,954.22
2022-09-11T07:15:08.101Z,954.19
2022-09-11T07:16:08.170Z,954.16
2022-09-11T07:17:08.080Z,954.16
2022-09-11T07:18:08.074Z,954.15
2022-09-11T07:19:08.083Z,954.21
2022-09-11T07:20:08.038Z,954.10
2022-09-11T07:21:08.035Z,954.09
2022-09-11T07:22:08.017Z,954.11
2022-09-11T07:23:08.025Z,954.19
2022-09-11T07:24:08.006Z,954.22
2022-09-11T07:25:08.021Z,954.27
2022-09-11T07:26:07.968Z,954.25
2022-09-11T07:27:07.962Z,954.26
2022-09-11T07:28:07.955Z,954.27
2022-09-11T07:29:07.924Z,954.29
2022-09-11T07:30:07.902Z,954.30
2022-09-11T07:31:07.956Z,954.32
2022-09-11T07:32:07.876Z,954.35
2022-09-11T07:33:07.892Z,954.42
2022-09-11T07:34:07.948Z,954.47
2022-09-11T07:35:07.868Z,954.51
2022-09-11T07:36:07.838Z,954.46
2022-09-11T07:37:07.840Z,954.46
2022-09-11T07:38:07.807Z,954.45
2022-09-11T07:39:07.793Z,954.46
2022-09-11T07:40:07.867Z,954.45
2022-09-11T07:41:07.771Z,954.44
2022-09-11T07:42:07.753Z,954.46
2022-09-11T07:43:07.773Z,954.48
2022-09-11T07:44:07.719Z,954.48
2022-09-11T07:45:07.733Z,954.44
2022-09-11T07:46:07.720Z,954.42
2022-09-11T07:47:07.671Z,954.49
2022-09-11T07:48:07.668Z,954.47
2022-09-11T07:49:07.677Z,954.49
2022-09-11T07:50:07.743Z,954.55
2022-09-11T07:51:07.632Z,954.52
2022-09-11T07:52:07.617Z,954.54
2022-09-11T07:53:07.633Z,954.58
2022-09-11T07:54:07.582Z,954.64
2022-09-11T07:55:07.571Z,954.63
2022-09-11T07:56:07.564Z,954.60
2022-09-11T07:57:07.547Z,954.59
2022-09-11T07:58:07.533Z,954.60
2022-09-11T07:59:07.565Z,954.53
2022-09-11T08:00:07.502Z,954.59
2022-09-11T08:01:07.529Z,954.67
2022-09-11T08:02:07.533Z,954.74
2022-09-11T08:03:07.478Z,954.73
2022-09-11T08:04:07.450Z,954.74
2022-09-11T08:05:07.460Z,954.68
2022-09-11T08:06:07.425Z,954.61
2022-09-11T08:07:07.411Z,954.62
2022-09-11T08:08:07.401Z,954.62
2022-09-11T08:09:07.421Z,954.59
2022-09-11T08:10:26.163Z,954.68
2022-09-11T08:11:07.363Z,954.74
2022-09-11T08:12:07.338Z,954.79
2022-09-11T08:13:09.562Z,954.81
2022-09-11T08:14:07.353Z,954.82
2022-09-11T08:15:07.339Z,954.80
2022-09-11T08:16:07.410Z,954.79
2022-09-11T08:17:07.269Z,954.84
2022-09-11T08:18:07.335Z,954.83
2022-09-11T08:19:07.270Z,954.81
2022-09-11T08:20:07.227Z,954.77
2022-09-11T08:21:12.534Z,954.76
2022-09-11T08:22:07.236Z,954.76
2022-09-11T08:23:07.204Z,954.83
2022-09-11T08:24:07.209Z,954.85
2022-09-11T08:25:07.152Z,954.82
2022-09-11T08:26:07.795Z,954.79
2022-09-11T08:27:07.151Z,954.86
2022-09-11T08:28:07.116Z,954.85
2022-09-11T08:29:07.104Z,954.90
2022-09-11T08:30:07.095Z,954.92
2022-09-11T08:31:07.869Z,954.90
2022-09-11T08:32:07.070Z,954.89
2022-09-11T08:33:07.044Z,954.91
2022-09-11T08:34:07.054Z,954.90
2022-09-11T08:35:07.021Z,954.93
2022-09-11T08:36:07.040Z,954.93
2022-09-11T08:37:06.996Z,954.92
2022-09-11T08:38:07.007Z,954.98
2022-09-11T08:39:07.005Z,955.00
2022-09-11T08:40:06.999Z,955.00
2022-09-11T08:41:06.952Z,955.04
2022-09-11T08:42:06.934Z,955.07
2022-09-11T08:43:06.935Z,955.08
2022-09-11T08:44:06.908Z,955.09
2022-09-11T08:45:06.923Z,955.11
2022-09-11T08:46:06.908Z,955.05
2022-09-11T08:47:06.867Z,955.04
2022-09-11T08:48:06.857Z,955.03
2022-09-11T08:49:06.839Z,955.04
2022-09-11T08:50:06.850Z,955.08
2022-09-11T08:51:07.802Z,955.03
2022-09-11T08:52:06.833Z,955.07
2022-09-11T08:53:10.927Z,955.07
2022-09-11T08:54:06.779Z,955.03
2022-09-11T08:55:06.760Z,955.13
2022-09-11T08:56:07.318Z,955.13
2022-09-11T08:57:06.807Z,955.12
2022-09-11T08:58:06.736Z,955.10
2022-09-11T08:59:06.712Z,955.05
2022-09-11T09:00:06.726Z,955.05
2022-09-11T09:01:07.353Z,955.01
2022-09-11T09:02:06.703Z,955.06
2022-09-11T09:03:06.652Z,955.05
2022-09-11T09:04:06.637Z,955.07
2022-09-11T09:05:06.625Z,955.04
2022-09-11T09:06:07.337Z,955.05
2022-09-11T09:07:06.589Z,955.07
2022-09-11T09:08:06.576Z,955.06
2022-09-11T09:09:06.585Z,955.10
2022-09-11T09:10:06.547Z,955.05
2022-09-11T09:11:07.348Z,955.04
2022-09-11T09:12:06.531Z,954.98
2022-09-11T09:13:06.512Z,954.93
2022-09-11T09:14:06.514Z,954.95
2022-09-11T09:15:06.485Z,954.96
2022-09-11T09:16:07.370Z,955.05
2022-09-11T09:17:06.473Z,955.04
2022-09-11T09:18:06.443Z,955.03
2022-09-11T09:19:06.447Z,954.95
2022-09-11T09:20:06.424Z,954.93
2022-09-11T09:21:07.353Z,954.95
2022-09-11T09:22:06.401Z,955.00
2022-09-11T09:23:06.374Z,955.07
2022-09-11T09:24:06.381Z,955.02
2022-09-11T09:25:06.390Z,955.04
2022-09-11T09:26:07.320Z,955.04
2022-09-11T09:27:06.316Z,955.03
2022-09-11T09:28:06.332Z,955.05
2022-09-11T09:29:06.312Z,955.03
2022-09-11T09:30:06.293Z,955.06
2022-09-11T09:31:07.891Z,955.06
2022-09-11T09:32:06.297Z,955.08
2022-09-11T09:33:08.330Z,955.04
2022-09-11T09:34:06.238Z,954.99
2022-09-11T09:35:06.222Z,954.99
2022-09-11T09:36:07.894Z,954.98
2022-09-11T09:37:06.190Z,955.09
2022-09-11T09:38:06.174Z,955.13
2022-09-11T09:39:06.163Z,955.13
2022-09-11T09:40:06.236Z,955.07
2022-09-11T09:41:06.830Z,955.03
2022-09-11T09:42:06.130Z,955.05
2022-09-11T09:43:06.131Z,955.02
2022-09-11T09:44:06.093Z,955.05
2022-09-11T09:45:06.078Z,955.02
2022-09-11T09:46:06.889Z,955.01
2022-09-11T09:47:06.053Z,955.01
2022-09-11T09:48:06.036Z,954.98
2022-09-11T09:49:06.026Z,955.00
2022-09-11T09:50:06.046Z,954.98
2022-09-11T09:51:06.822Z,954.98
2022-09-11T09:52:05.992Z,954.97
2022-09-11T09:53:05.976Z,954.96
2022-09-11T09:54:05.961Z,954.97
2022-09-11T09:55:05.973Z,954.98
2022-09-11T09:56:06.831Z,954.95
2022-09-11T09:57:05.915Z,954.95
2022-09-11T09:58:05.935Z,954.93
2022-09-11T09:59:05.891Z,954.90
2022-09-11T10:00:05.910Z,954.81
2022-09-11T10:01:08.851Z,954.84
2022-09-11T10:02:05.983Z,954.91
2022-09-11T10:03:05.864Z,954.95
2022-09-11T10:04:05.871Z,954.96
2022-09-11T10:05:05.805Z,954.94
2022-09-11T10:06:08.343Z,954.88
2022-09-11T10:07:05.788Z,954.91
2022-09-11T10:08:05.784Z,954.94
2022-09-11T10:09:05.785Z,954.93
2022-09-11T10:10:05.754Z,954.90
2022-09-11T10:11:08.325Z,954.89
2022-09-11T10:12:05.726Z,954.83
2022-09-11T10:13:18.998Z,954.88
2022-09-11T10:14:10.105Z,954.84
2022-09-11T10:15:05.687Z,954.85
2022-09-11T10:16:08.886Z,954.89
2022-09-11T10:17:05.639Z,954.92
2022-09-11T10:18:05.662Z,954.95
2022-09-11T10:19:05.614Z,954.97
2022-09-11T10:20:05.623Z,954.92
2022-09-11T10:21:08.609Z,954.90
2022-09-11T10:22:05.614Z,954.88
2022-09-11T10:23:05.593Z,954.87
2022-09-11T10:24:05.563Z,954.86
2022-09-11T10:25:05.540Z,954.81
2022-09-11T10:26:08.331Z,954.89
2022-09-11T10:27:05.559Z,954.85
2022-09-11T10:28:05.511Z,954.83
2022-09-11T10:29:05.490Z,954.83
2022-09-11T10:30:05.490Z,954.86
2022-09-11T10:31:05.478Z,954.87
2022-09-11T10:32:05.489Z,954.87
2022-09-11T10:33:05.435Z,954.87
2022-09-11T10:34:05.421Z,954.87
2022-09-11T10:35:05.443Z,954.93
2022-09-11T10:36:08.341Z,954.96
2022-09-11T10:37:05.382Z,954.91
2022-09-11T10:38:05.400Z,954.91
2022-09-11T10:39:05.348Z,954.87
2022-09-11T10:40:05.518Z,954.88
2022-09-11T10:41:07.839Z,954.90
2022-09-11T10:42:06.399Z,954.92
2022-09-11T10:43:05.831Z,954.85
2022-09-11T10:44:05.325Z,954.86
2022-09-11T10:45:05.277Z,954.89
2022-09-11T10:46:07.879Z,954.84
2022-09-11T10:47:05.271Z,954.79
2022-09-11T10:48:05.233Z,954.73
2022-09-11T10:49:05.207Z,954.69
2022-09-11T10:50:05.206Z,954.83
2022-09-11T10:51:07.841Z,954.90
2022-09-11T10:52:05.203Z,954.90
2022-09-11T10:53:05.161Z,954.95
2022-09-11T10:54:05.188Z,954.96
2022-09-11T10:55:05.133Z,954.86
2022-09-11T10:56:07.847Z,954.80
2022-09-11T10:57:05.111Z,954.82
2022-09-11T10:58:05.095Z,954.82
2022-09-11T10:59:05.146Z,954.72
2022-09-11T11:00:05.083Z,954.79
2022-09-11T11:01:07.298Z,954.87
2022-09-11T11:02:05.055Z,954.86
2022-09-11T11:03:05.028Z,954.92
2022-09-11T11:04:08.142Z,954.97
2022-09-11T11:05:05.036Z,954.97
2022-09-11T11:06:04.993Z,954.97
2022-09-11T11:07:04.975Z,954.95
2022-09-11T11:08:04.960Z,954.92
2022-09-11T11:09:04.988Z,954.98
2022-09-11T11:10:04.933Z,954.97
2022-09-11T11:11:04.924Z,955.03
2022-09-11T11:12:04.912Z,955.14
2022-09-11T11:13:04.892Z,955.26
2022-09-11T11:14:04.924Z,955.37
2022-09-11T11:15:04.866Z,955.44
2022-09-11T11:16:04.917Z,955.52
2022-09-11T11:17:04.897Z,955.57
2022-09-11T11:18:04.829Z,955.53
2022-09-11T11:19:04.814Z,955.49
2022-09-11T11:20:04.802Z,955.48
2022-09-11T11:21:04.806Z,955.49
2022-09-11T11:22:04.774Z,955.51
2022-09-11T11:23:04.753Z,955.58
2022-09-11T11:24:04.743Z,955.58
2022-09-11T11:25:04.731Z,955.63
2022-09-11T11:26:04.750Z,955.63
2022-09-11T11:27:04.820Z,955.65
2022-09-11T11:28:04.688Z,955.64
2022-09-11T11:29:04.673Z,955.63
2022-09-11T11:30:04.656Z,955.67
2022-09-11T11:31:06.841Z,955.68
2022-09-11T11:32:04.678Z,955.69
2022-09-11T11:33:04.624Z,955.65
2022-09-11T11:34:04.605Z,955.65
2022-09-11T11:35:04.608Z,955.69
2022-09-11T11:36:06.733Z,955.75
2022-09-11T11:37:04.649Z,955.75
2022-09-11T11:38:04.588Z,955.74
2022-09-11T11:39:04.542Z,955.72
2022-09-11T11:40:04.633Z,955.71
2022-09-11T11:41:04.514Z,955.69
2022-09-11T11:42:04.503Z,955.73
2022-09-11T11:43:04.512Z,955.76
2022-09-11T11:44:04.493Z,955.77
2022-09-11T11:45:04.474Z,955.76
2022-09-11T11:46:04.504Z,955.75
2022-09-11T11:47:04.456Z,955.73
2022-09-11T11:48:04.427Z,955.81
2022-09-11T11:49:04.403Z,955.81
2022-09-11T11:50:04.440Z,955.76
2022-09-11T11:51:04.369Z,955.77
2022-09-11T11:52:04.389Z,955.71
2022-09-11T11:53:04.370Z,955.68
2022-09-11T11:54:04.342Z,955.72
2022-09-11T11:55:04.315Z,955.72
2022-09-11T11:56:04.312Z,955.74
2022-09-11T11:57:04.311Z,955.78
2022-09-11T11:58:04.285Z,955.80
2022-09-11T11:59:04.267Z,955.85
2022-09-11T12:00:04.256Z,955.85
2022-09-11T12:01:04.281Z,955.86
2022-09-11T12:02:04.293Z,955.83
2022-09-11T12:03:04.210Z,955.83
2022-09-11T12:04:04.213Z,955.81
2022-09-11T12:05:04.184Z,955.83
2022-09-11T12:06:04.197Z,955.84
2022-09-11T12:07:04.189Z,955.82
2022-09-11T12:08:04.144Z,955.80
2022-09-11T12:09:04.145Z,955.82
2022-09-11T12:10:04.117Z,955.81
2022-09-11T12:11:04.107Z,955.80
2022-09-11T12:12:04.116Z,955.75
2022-09-11T12:13:04.092Z,955.78
2022-09-11T12:14:04.075Z,955.79
2022-09-11T12:15:04.044Z,955.80
2022-09-11T12:16:05.722Z,955.79
2022-09-11T12:17:04.060Z,955.82
2022-09-11T12:18:04.005Z,955.82
2022-09-11T12:19:04.008Z,955.83
2022-09-11T12:20:03.984Z,955.86
2022-09-11T12:21:04.005Z,955.82
2022-09-11T12:22:03.969Z,955.85
2022-09-11T12:23:03.952Z,955.90
2022-09-11T12:24:03.940Z,955.88
2022-09-11T12:25:03.926Z,955.90
2022-09-11T12:26:03.927Z,955.95
2022-09-11T12:27:03.903Z,955.94
2022-09-11T12:28:03.867Z,955.95